High Shoals, North Carolina
Current Conditions -  °F | °C
As of 5:55 PM on Tuesday 27 Jan 2015 (Local Time) from KIPJ Reporting Station
Clear Clear  
Wind Chill: 35°   Ceiling: Unl
Heat Index: 40°   Visibility: 10mi
Dew Point: 20°   Wind: 7mph
Humidity: 45%   Direction: 310°NW
Pressure: 29.92"   Gusts: NA
Location:  35.4°N, 81.2°W
Report Text: KIPJ 272255Z AUTO 31006KT 10SM CLR 04/M07 A2992 RMK AO2 T00431068
Loading
Personal Weather Stations






























Interactive Weather Map New forecast layout! Learn more

10-Day Weather Forecast

Advertisements
Track Severe Weather on mobile